Alkabo, North Dakota
Current Conditions -  °F | °C
As of 7:52 AM on Monday 26 Jan 2015 (Local Time) from KISN Reporting Station
Clear Clear  
Wind Chill: 26°   Ceiling: Unl
Heat Index: 33°   Visibility: 10mi
Dew Point: 29°   Wind: 8mph
Humidity: 85%   Direction: 220°SW
Pressure: 29.93"   Gusts: NA
Location:  48.5901°N, 103.922°W
Report Text: KISN 261352Z AUTO 22007KT 10SM CLR 01/M02 A2993 RMK AO2 SLP154 T00061017
Loading
Personal Weather Stations






























Interactive Weather Map New forecast layout! Learn more

10-Day Weather Forecast

Advertisements
Track Severe Weather on mobile